createdAt,value
2023-04-12T00:00:34.819Z,92419.00
2023-04-12T00:01:34.937Z,92417.00
2023-04-12T00:02:35.226Z,92413.00
2023-04-12T00:03:35.356Z,92417.00
2023-04-12T00:04:35.477Z,92417.00
2023-04-12T00:05:35.417Z,92415.00
2023-04-12T00:06:35.555Z,92413.00
2023-04-12T00:07:35.636Z,92407.00
2023-04-12T00:08:35.744Z,92403.00
2023-04-12T00:09:35.841Z,92399.00
2023-04-12T00:10:35.955Z,92399.00
2023-04-12T00:11:36.069Z,92399.00
2023-04-12T00:12:36.200Z,92396.00
2023-04-12T00:13:36.244Z,92392.00
2023-04-12T00:14:36.286Z,92392.00
2023-04-12T00:15:36.411Z,92394.00
2023-04-12T00:16:36.440Z,92392.00
2023-04-12T00:17:36.535Z,92394.00
2023-04-12T00:18:36.621Z,92388.00
2023-04-12T00:19:36.686Z,92388.00
2023-04-12T00:20:36.742Z,92386.00
2023-04-12T00:21:36.814Z,92388.00
2023-04-12T00:22:36.884Z,92382.00
2023-04-12T00:23:36.948Z,92382.00
2023-04-12T00:24:37.002Z,92384.00
2023-04-12T00:25:37.078Z,92388.00
2023-04-12T00:26:37.143Z,92390.00
2023-04-12T00:27:37.267Z,92388.00
2023-04-12T00:28:37.385Z,92390.00
2023-04-12T00:29:37.541Z,92386.00
2023-04-12T00:30:37.608Z,92382.00
2023-04-12T00:31:37.821Z,92380.00
2023-04-12T00:32:37.831Z,92378.00
2023-04-12T00:33:37.949Z,92376.00
2023-04-12T00:34:38.070Z,92374.00
2023-04-12T00:35:38.296Z,92372.00
2023-04-12T00:36:38.268Z,92368.00
2023-04-12T00:37:38.367Z,92366.00
2023-04-12T00:38:38.449Z,92364.00
2023-04-12T00:39:38.549Z,92362.00
2023-04-12T00:40:38.714Z,92364.00
2023-04-12T00:41:38.796Z,92360.00
2023-04-12T00:42:38.884Z,92360.00
2023-04-12T00:43:39.010Z,92358.00
2023-04-12T00:44:39.112Z,92354.00
2023-04-12T00:45:39.231Z,92352.00
2023-04-12T00:46:39.379Z,92350.00
2023-04-12T00:47:39.547Z,92350.00
2023-04-12T00:48:39.594Z,92349.00
2023-04-12T00:49:39.684Z,92350.00
2023-04-12T00:50:39.811Z,92347.00
2023-04-12T00:51:39.919Z,92345.00
2023-04-12T00:52:40.004Z,92345.00
2023-04-12T00:53:40.104Z,92341.00
2023-04-12T00:54:40.206Z,92339.00
2023-04-12T00:55:40.322Z,92337.00
2023-04-12T00:56:40.412Z,92339.00
2023-04-12T00:57:40.574Z,92335.00
2023-04-12T00:58:40.579Z,92331.00
2023-04-12T00:59:40.690Z,92329.00
2023-04-12T01:00:40.852Z,92329.00
2023-04-12T01:01:40.940Z,92331.00
2023-04-12T01:02:41.119Z,92331.00
2023-04-12T01:03:41.075Z,92327.00
2023-04-12T01:04:41.076Z,92327.00
2023-04-12T01:05:41.125Z,92319.00
2023-04-12T01:06:41.282Z,92319.00
2023-04-12T01:07:41.479Z,92317.00
2023-04-12T01:08:41.605Z,92315.00
2023-04-12T01:09:41.706Z,92315.00
2023-04-12T01:10:41.814Z,92315.00
2023-04-12T01:11:41.893Z,92315.00
2023-04-12T01:12:41.962Z,92315.00
2023-04-12T01:13:42.102Z,92315.00
2023-04-12T01:14:42.164Z,92313.00
2023-04-12T01:15:42.249Z,92313.00
2023-04-12T01:16:42.404Z,92310.00
2023-04-12T01:17:42.409Z,92308.00
2023-04-12T01:18:42.459Z,92308.00
2023-04-12T01:19:42.508Z,92310.00
2023-04-12T01:20:42.568Z,92310.00
2023-04-12T01:21:42.637Z,92310.00
2023-04-12T01:22:42.699Z,92312.00
2023-04-12T01:23:42.751Z,92310.00
2023-04-12T01:24:42.837Z,92310.00
2023-04-12T01:25:42.948Z,92308.00
2023-04-12T01:26:42.911Z,92306.00
2023-04-12T01:27:42.976Z,92306.00
2023-04-12T01:28:43.040Z,92306.00
2023-04-12T01:29:43.110Z,92304.00
2023-04-12T01:30:43.241Z,92302.00
2023-04-12T01:31:43.267Z,92302.00
2023-04-12T01:32:43.320Z,92302.00
2023-04-12T01:33:43.344Z,92304.00
2023-04-12T01:34:43.392Z,92306.00
2023-04-12T01:35:43.510Z,92306.00
2023-04-12T01:36:43.512Z,92306.00
2023-04-12T01:37:43.569Z,92304.00
2023-04-12T01:38:43.634Z,92298.00
2023-04-12T01:39:43.706Z,92304.00
2023-04-12T01:40:43.763Z,92304.00
2023-04-12T01:41:43.833Z,92306.00
2023-04-12T01:42:43.900Z,92304.00
2023-04-12T01:43:43.961Z,92302.00
2023-04-12T01:44:44.033Z,92302.00
2023-04-12T01:45:44.171Z,92302.00
2023-04-12T01:46:44.143Z,92302.00
2023-04-12T01:47:44.231Z,92300.00
2023-04-12T01:48:44.257Z,92298.00
2023-04-12T01:49:44.393Z,92300.00
2023-04-12T01:50:44.399Z,92300.00
2023-04-12T01:51:44.441Z,92296.00
2023-04-12T01:52:44.491Z,92292.00
2023-04-12T01:53:44.573Z,92288.00
2023-04-12T01:54:44.625Z,92292.00
2023-04-12T01:55:44.677Z,92292.00
2023-04-12T01:56:44.745Z,92296.00
2023-04-12T01:57:44.790Z,92296.00
2023-04-12T01:58:44.853Z,92296.00
2023-04-12T01:59:44.920Z,92300.00
2023-04-12T02:00:45.061Z,92298.00
2023-04-12T02:01:45.146Z,92298.00
2023-04-12T02:02:45.248Z,92298.00
2023-04-12T02:03:45.406Z,92300.00
2023-04-12T02:04:45.320Z,92300.00
2023-04-12T02:05:45.450Z,92300.00
2023-04-12T02:06:45.553Z,92296.00
2023-04-12T02:07:45.656Z,92298.00
2023-04-12T02:08:45.751Z,92294.00
2023-04-12T02:09:45.898Z,92292.00
2023-04-12T02:10:45.952Z,92292.00
2023-04-12T02:11:46.018Z,92294.00
2023-04-12T02:12:46.116Z,92288.00
2023-04-12T02:13:46.199Z,92290.00
2023-04-12T02:14:46.277Z,92292.00
2023-04-12T02:15:46.344Z,92292.00
2023-04-12T02:16:46.495Z,92288.00
2023-04-12T02:17:46.513Z,92288.00
2023-04-12T02:18:46.611Z,92286.00
2023-04-12T02:19:46.710Z,92286.00
2023-04-12T02:20:46.796Z,92284.00
2023-04-12T02:21:46.869Z,92282.00
2023-04-12T02:22:46.938Z,92282.00
2023-04-12T02:23:47.044Z,92280.00
2023-04-12T02:24:47.061Z,92280.00
2023-04-12T02:25:47.141Z,92280.00
2023-04-12T02:26:47.212Z,92280.00
2023-04-12T02:27:47.271Z,92282.00
2023-04-12T02:28:47.344Z,92280.00
2023-04-12T02:29:47.414Z,92278.00
2023-04-12T02:30:47.528Z,92278.00
2023-04-12T02:31:47.542Z,92274.00
2023-04-12T02:32:47.686Z,92276.00
2023-04-12T02:33:47.684Z,92278.00
2023-04-12T02:34:47.771Z,92272.00
2023-04-12T02:35:47.857Z,92276.00
2023-04-12T02:36:47.886Z,92274.00
2023-04-12T02:37:47.950Z,92274.00
2023-04-12T02:38:48.750Z,92272.00
2023-04-12T02:39:48.088Z,92272.00
2023-04-12T02:40:48.170Z,92274.00
2023-04-12T02:41:48.228Z,92274.00
2023-04-12T02:42:48.298Z,92272.00
2023-04-12T02:43:48.377Z,92272.00
2023-04-12T02:44:48.446Z,92266.00
2023-04-12T02:45:48.570Z,92266.00
2023-04-12T02:46:48.604Z,92265.00
2023-04-12T02:47:48.717Z,92265.00
2023-04-12T02:48:48.775Z,92265.00
2023-04-12T02:49:48.857Z,92263.00
2023-04-12T02:50:48.975Z,92265.00
2023-04-12T02:51:49.051Z,92263.00
2023-04-12T02:52:49.145Z,92261.00
2023-04-12T02:53:49.255Z,92255.00
2023-04-12T02:54:49.336Z,92257.00
2023-04-12T02:55:49.438Z,92259.00
2023-04-12T02:56:49.536Z,92257.00
2023-04-12T02:57:49.627Z,92257.00
2023-04-12T02:58:49.736Z,92257.00
2023-04-12T02:59:49.826Z,92255.00
2023-04-12T03:00:49.925Z,92257.00
2023-04-12T03:01:50.076Z,92255.00
2023-04-12T03:02:50.257Z,92257.00
2023-04-12T03:03:50.290Z,92259.00
2023-04-12T03:04:50.313Z,92255.00
2023-04-12T03:05:50.411Z,92255.00
2023-04-12T03:06:50.509Z,92251.00
2023-04-12T03:07:50.613Z,92251.00
2023-04-12T03:08:50.709Z,92251.00
2023-04-12T03:09:50.810Z,92255.00
2023-04-12T03:10:50.904Z,92257.00
2023-04-12T03:11:51.026Z,92257.00
2023-04-12T03:12:51.104Z,92257.00
2023-04-12T03:13:51.206Z,92259.00
2023-04-12T03:14:51.295Z,92259.00
2023-04-12T03:15:51.434Z,92259.00
2023-04-12T03:16:51.505Z,92263.00
2023-04-12T03:17:51.672Z,92259.00
2023-04-12T03:18:51.714Z,92259.00
2023-04-12T03:19:51.794Z,92259.00
2023-04-12T03:20:51.879Z,92259.00
2023-04-12T03:21:51.976Z,92257.00
2023-04-12T03:22:52.061Z,92257.00
2023-04-12T03:23:52.158Z,92259.00
2023-04-12T03:24:52.251Z,92253.00
2023-04-12T03:25:52.348Z,92255.00
2023-04-12T03:26:52.439Z,92255.00
2023-04-12T03:27:52.520Z,92255.00
2023-04-12T03:28:52.609Z,92253.00
2023-04-12T03:29:52.710Z,92253.00
2023-04-12T03:30:52.851Z,92251.00
2023-04-12T03:31:52.890Z,92251.00
2023-04-12T03:32:53.079Z,92251.00
2023-04-12T03:33:53.070Z,92247.00
2023-04-12T03:34:53.170Z,92245.00
2023-04-12T03:35:53.296Z,92247.00
2023-04-12T03:36:53.403Z,92247.00
2023-04-12T03:37:53.445Z,92249.00
2023-04-12T03:38:53.562Z,92249.00
2023-04-12T03:39:53.657Z,92243.00
2023-04-12T03:40:53.758Z,92245.00
2023-04-12T03:41:53.862Z,92245.00
2023-04-12T03:42:53.958Z,92243.00
2023-04-12T03:43:54.158Z,92245.00
2023-04-12T03:44:54.172Z,92247.00
2023-04-12T03:45:54.275Z,92249.00
2023-04-12T03:46:54.454Z,92249.00
2023-04-12T03:47:54.521Z,92251.00
2023-04-12T03:48:54.559Z,92255.00
2023-04-12T03:50:54.733Z,92251.00
2023-04-12T03:51:54.800Z,92251.00
2023-04-12T03:52:54.866Z,92243.00
2023-04-12T03:53:55.105Z,92243.00
2023-04-12T03:54:55.012Z,92241.00
2023-04-12T03:55:55.079Z,92239.00
2023-04-12T03:56:55.152Z,92239.00
2023-04-12T03:57:55.230Z,92239.00
2023-04-12T03:58:55.303Z,92243.00
2023-04-12T03:59:55.395Z,92239.00
2023-04-12T04:00:55.447Z,92237.00
2023-04-12T04:01:55.536Z,92233.00
2023-04-12T04:02:55.633Z,92231.00
2023-04-12T04:03:56.232Z,92233.00
2023-04-12T04:04:55.799Z,92225.00
2023-04-12T04:05:55.835Z,92223.00
2023-04-12T04:06:55.907Z,92221.00
2023-04-12T04:07:55.983Z,92221.00
2023-04-12T04:08:56.062Z,92221.00
2023-04-12T04:09:56.148Z,92225.00
2023-04-12T04:10:56.198Z,92225.00
2023-04-12T04:11:56.278Z,92221.00
2023-04-12T04:12:56.382Z,92219.00
2023-04-12T04:13:56.626Z,92219.00
2023-04-12T04:14:56.514Z,92221.00
2023-04-12T04:15:56.636Z,92216.00
2023-04-12T04:16:56.698Z,92212.00
2023-04-12T04:17:56.806Z,92212.00
2023-04-12T04:18:56.825Z,92210.00
2023-04-12T04:19:56.908Z,92212.00
2023-04-12T04:20:56.977Z,92210.00
2023-04-12T04:21:57.070Z,92208.00
2023-04-12T04:22:57.141Z,92208.00
2023-04-12T04:23:57.418Z,92210.00
2023-04-12T04:24:57.278Z,92212.00
2023-04-12T04:25:57.367Z,92210.00
2023-04-12T04:26:57.430Z,92204.00
2023-04-12T04:27:57.503Z,92202.00
2023-04-12T04:28:57.622Z,92196.00
2023-04-12T04:29:57.667Z,92200.00
2023-04-12T04:30:57.743Z,92200.00
2023-04-12T04:31:57.850Z,92200.00
2023-04-12T04:32:57.897Z,92200.00
2023-04-12T04:33:58.081Z,92200.00
2023-04-12T04:34:58.031Z,92196.00
2023-04-12T04:35:58.183Z,92198.00
2023-04-12T04:36:58.179Z,92198.00
2023-04-12T04:37:58.282Z,92196.00
2023-04-12T04:38:58.342Z,92196.00
2023-04-12T04:39:58.422Z,92194.00
2023-04-12T04:40:58.510Z,92192.00
2023-04-12T04:41:58.588Z,92194.00
2023-04-12T04:42:58.672Z,92192.00
2023-04-12T04:43:58.839Z,92194.00
2023-04-12T04:44:58.821Z,92196.00
2023-04-12T04:45:59.018Z,92198.00
2023-04-12T04:46:58.980Z,92196.00
2023-04-12T04:47:59.087Z,92198.00
2023-04-12T04:48:59.113Z,92198.00
2023-04-12T04:49:59.190Z,92200.00
2023-04-12T04:50:59.260Z,92202.00
2023-04-12T04:51:59.330Z,92200.00
2023-04-12T04:52:59.414Z,92200.00
2023-04-12T04:53:59.492Z,92204.00
2023-04-12T04:54:59.572Z,92204.00
2023-04-12T04:55:59.697Z,92204.00
2023-04-12T04:56:59.791Z,92204.00
2023-04-12T04:58:00.160Z,92202.00
2023-04-12T04:59:00.238Z,92200.00
2023-04-12T05:00:00.195Z,92198.00
2023-04-12T05:01:00.345Z,92196.00
2023-04-12T05:02:00.537Z,92196.00
2023-04-12T05:03:00.635Z,92198.00
2023-04-12T05:04:00.841Z,92202.00
2023-04-12T05:05:00.863Z,92204.00
2023-04-12T05:06:00.983Z,92200.00
2023-04-12T05:07:01.102Z,92200.00
2023-04-12T05:08:01.206Z,92202.00
2023-04-12T05:09:01.318Z,92200.00
2023-04-12T05:10:01.461Z,92202.00
2023-04-12T05:11:01.575Z,92202.00
2023-04-12T05:12:01.689Z,92204.00
2023-04-12T05:13:02.778Z,92208.00
2023-04-12T05:14:01.952Z,92208.00
2023-04-12T05:16:02.122Z,92204.00
2023-04-12T05:17:02.197Z,92206.00
2023-04-12T05:18:02.369Z,92204.00
2023-04-12T05:19:02.339Z,92206.00
2023-04-12T05:20:02.428Z,92210.00
2023-04-12T05:21:03.294Z,92206.00
2023-04-12T05:22:02.578Z,92204.00
2023-04-12T05:23:02.653Z,92204.00
2023-04-12T05:24:02.793Z,92206.00
2023-04-12T05:25:02.814Z,92202.00
2023-04-12T05:26:03.792Z,92202.00
2023-04-12T05:27:03.139Z,92206.00
2023-04-12T05:28:03.314Z,92206.00
2023-04-12T05:29:03.444Z,92204.00
2023-04-12T05:30:03.190Z,92204.00
2023-04-12T05:31:03.850Z,92206.00
2023-04-12T05:32:03.351Z,92206.00
2023-04-12T05:33:03.429Z,92208.00
2023-04-12T05:34:03.477Z,92204.00
2023-04-12T05:35:03.593Z,92202.00
2023-04-12T05:36:03.750Z,92204.00
2023-04-12T05:37:03.723Z,92206.00
2023-04-12T05:38:03.788Z,92204.00
2023-04-12T05:39:03.850Z,92200.00
2023-04-12T05:40:03.924Z,92200.00
2023-04-12T05:41:04.013Z,92204.00
2023-04-12T05:42:04.088Z,92206.00
2023-04-12T05:43:04.157Z,92206.00
2023-04-12T05:44:04.229Z,92206.00
2023-04-12T05:45:04.463Z,92208.00
2023-04-12T05:46:04.429Z,92210.00
2023-04-12T05:47:04.486Z,92206.00
2023-04-12T05:48:04.615Z,92206.00
2023-04-12T05:49:04.636Z,92202.00
2023-04-12T05:50:06.401Z,92200.00
2023-04-12T05:51:04.795Z,92196.00
2023-04-12T05:52:04.878Z,92196.00
2023-04-12T05:53:04.971Z,92196.00
2023-04-12T05:54:05.063Z,92196.00
2023-04-12T05:55:05.227Z,92198.00
2023-04-12T05:56:05.544Z,92194.00
2023-04-12T05:57:05.681Z,92192.00
2023-04-12T05:58:05.651Z,92192.00
2023-04-12T05:59:05.786Z,92192.00
2023-04-12T06:00:05.927Z,92194.00
2023-04-12T06:01:06.084Z,92190.00
2023-04-12T06:02:06.245Z,92196.00
2023-04-12T06:03:06.568Z,92196.00
2023-04-12T06:04:06.586Z,92194.00
2023-04-12T06:05:06.695Z,92194.00
2023-04-12T06:06:06.767Z,92194.00
2023-04-12T06:07:06.911Z,92194.00
2023-04-12T06:08:07.055Z,92190.00
2023-04-12T06:09:07.205Z,92182.00
2023-04-12T06:10:07.456Z,92184.00
2023-04-12T06:11:07.488Z,92192.00
2023-04-12T06:12:07.645Z,92192.00
2023-04-12T06:13:07.787Z,92190.00
2023-04-12T06:14:09.461Z,92190.00
2023-04-12T06:15:08.008Z,92184.00
2023-04-12T06:16:08.094Z,92188.00
2023-04-12T06:17:08.179Z,92188.00
2023-04-12T06:18:08.366Z,92186.00
2023-04-12T06:19:08.349Z,92186.00
2023-04-12T06:20:08.403Z,92182.00
2023-04-12T06:21:08.482Z,92184.00
2023-04-12T06:22:08.557Z,92186.00
2023-04-12T06:23:08.636Z,92190.00
2023-04-12T06:24:08.726Z,92192.00
2023-04-12T06:25:08.992Z,92192.00
2023-04-12T06:26:08.892Z,92190.00
2023-04-12T06:27:08.969Z,92190.00
2023-04-12T06:28:09.063Z,92190.00
2023-04-12T06:29:09.132Z,92188.00
2023-04-12T06:30:09.713Z,92188.00
2023-04-12T06:31:10.776Z,92190.00
2023-04-12T06:32:09.374Z,92188.00
2023-04-12T06:33:09.458Z,92190.00
2023-04-12T06:34:09.534Z,92192.00
2023-04-12T06:35:09.611Z,92188.00
2023-04-12T06:36:09.764Z,92184.00
2023-04-12T06:37:09.777Z,92182.00
2023-04-12T06:38:09.859Z,92184.00
2023-04-12T06:39:12.347Z,92184.00
2023-04-12T06:40:10.036Z,92186.00
2023-04-12T06:41:10.190Z,92186.00
2023-04-12T06:42:11.580Z,92182.00
2023-04-12T06:43:11.309Z,92184.00
2023-04-12T06:44:10.510Z,92178.00
2023-04-12T06:45:10.649Z,92182.00
2023-04-12T06:46:10.808Z,92178.00
2023-04-12T06:47:11.062Z,92180.00
2023-04-12T06:48:11.088Z,92180.00
2023-04-12T06:49:11.223Z,92182.00
2023-04-12T06:50:11.340Z,92176.00
2023-04-12T06:51:12.661Z,92174.00
2023-04-12T06:52:11.657Z,92168.00
2023-04-12T06:53:11.750Z,92168.00
2023-04-12T06:54:13.803Z,92168.00
2023-04-12T06:55:11.915Z,92170.00
2023-04-12T06:56:11.993Z,92166.00
2023-04-12T06:57:12.077Z,92168.00
2023-04-12T06:58:12.166Z,92164.00
2023-04-12T06:59:12.258Z,92168.00
2023-04-12T07:00:12.335Z,92166.00
2023-04-12T07:01:12.480Z,92168.00
2023-04-12T07:02:12.564Z,92166.00
2023-04-12T07:03:15.438Z,92164.00
2023-04-12T07:04:13.756Z,92164.00
2023-04-12T07:05:12.856Z,92166.00
2023-04-12T07:06:24.444Z,92163.00
2023-04-12T07:07:14.070Z,92164.00
2023-04-12T07:08:13.377Z,92164.00
2023-04-12T07:09:13.329Z,92164.00
2023-04-12T07:10:13.302Z,92163.00
2023-04-12T07:11:21.008Z,92161.00
2023-04-12T07:12:14.465Z,92157.00
2023-04-12T07:13:14.177Z,92157.00
2023-04-12T07:14:13.607Z,92155.00
2023-04-12T07:15:13.832Z,92153.00
2023-04-12T07:16:13.782Z,92155.00
2023-04-12T07:17:13.850Z,92151.00
2023-04-12T07:18:13.924Z,92153.00
2023-04-12T07:19:14.088Z,92153.00
2023-04-12T07:20:14.120Z,92153.00
2023-04-12T07:21:14.226Z,92155.00
2023-04-12T07:22:14.446Z,92153.00
2023-04-12T07:23:14.458Z,92155.00
2023-04-12T07:24:14.623Z,92153.00
2023-04-12T07:25:14.899Z,92155.00
2023-04-12T07:26:14.910Z,92153.00
2023-04-12T07:27:15.044Z,92155.00
2023-04-12T07:28:15.196Z,92157.00
2023-04-12T07:29:15.439Z,92155.00
2023-04-12T07:30:15.479Z,92155.00
2023-04-12T07:31:15.622Z,92157.00
2023-04-12T07:32:15.766Z,92159.00
2023-04-12T07:33:19.520Z,92155.00
2023-04-12T07:34:16.229Z,92157.00
2023-04-12T07:35:16.194Z,92157.00
2023-04-12T07:36:16.328Z,92155.00
2023-04-12T07:37:16.336Z,92157.00
2023-04-12T07:38:17.080Z,92157.00
2023-04-12T07:39:16.497Z,92153.00
2023-04-12T07:40:16.569Z,92153.00
2023-04-12T07:41:16.646Z,92149.00
2023-04-12T07:42:16.736Z,92149.00
2023-04-12T07:43:16.814Z,92149.00
2023-04-12T07:44:16.898Z,92145.00
2023-04-12T07:45:16.979Z,92145.00
2023-04-12T07:46:17.064Z,92145.00
2023-04-12T07:47:17.130Z,92139.00
2023-04-12T07:48:17.232Z,92141.00
2023-04-12T07:49:17.296Z,92143.00
2023-04-12T07:50:17.380Z,92145.00
2023-04-12T07:51:17.512Z,92145.00
2023-04-12T07:52:17.561Z,92147.00
2023-04-12T07:53:17.630Z,92145.00
2023-04-12T07:54:17.715Z,92141.00
2023-04-12T07:55:17.805Z,92141.00
2023-04-12T07:56:17.954Z,92139.00
2023-04-12T07:57:18.067Z,92135.00
2023-04-12T07:58:18.211Z,92131.00
2023-04-12T07:59:18.381Z,92127.00
2023-04-12T08:00:18.520Z,92127.00
2023-04-12T08:01:18.651Z,92123.00
2023-04-12T08:02:18.873Z,92127.00
2023-04-12T08:03:19.072Z,92125.00
2023-04-12T08:04:19.204Z,92121.00
2023-04-12T08:05:19.252Z,92123.00
2023-04-12T08:06:19.370Z,92127.00
2023-04-12T08:07:19.548Z,92129.00
2023-04-12T08:08:20.402Z,92127.00
2023-04-12T08:09:19.801Z,92125.00
2023-04-12T08:10:19.932Z,92123.00
2023-04-12T08:11:20.062Z,92121.00
2023-04-12T08:12:20.213Z,92117.00
2023-04-12T08:13:20.336Z,92117.00
2023-04-12T08:14:21.233Z,92119.00
2023-04-12T08:15:20.596Z,92119.00
2023-04-12T08:16:20.769Z,92119.00
2023-04-12T08:17:20.987Z,92117.00
2023-04-12T08:18:21.035Z,92117.00
2023-04-12T08:19:21.165Z,92113.00
2023-04-12T08:20:21.326Z,92119.00
2023-04-12T08:21:21.434Z,92113.00
2023-04-12T08:22:21.583Z,92111.00
2023-04-12T08:23:21.738Z,92109.00
2023-04-12T08:24:22.094Z,92108.00
2023-04-12T08:25:22.024Z,92104.00
2023-04-12T08:26:22.165Z,92104.00
2023-04-12T08:27:22.829Z,92100.00
2023-04-12T08:28:22.429Z,92096.00
2023-04-12T08:29:22.557Z,92098.00
2023-04-12T08:30:22.653Z,92098.00
2023-04-12T08:31:22.888Z,92100.00
2023-04-12T08:32:23.826Z,92098.00
2023-04-12T08:33:23.182Z,92098.00
2023-04-12T08:34:23.195Z,92098.00
2023-04-12T08:35:23.415Z,92098.00
2023-04-12T08:36:23.496Z,92100.00
2023-04-12T08:37:24.633Z,92100.00
2023-04-12T08:38:37.324Z,92102.00
2023-04-12T08:39:24.766Z,92100.00
2023-04-12T08:40:23.846Z,92100.00
2023-04-12T08:41:23.948Z,92100.00
2023-04-12T08:42:24.043Z,92098.00
2023-04-12T08:43:24.093Z,92096.00
2023-04-12T08:44:24.179Z,92092.00
2023-04-12T08:45:24.262Z,92088.00
2023-04-12T08:46:25.350Z,92084.00
2023-04-12T08:47:24.472Z,92084.00
2023-04-12T08:48:24.561Z,92084.00
2023-04-12T08:49:24.580Z,92080.00
2023-04-12T08:50:24.653Z,92076.00
2023-04-12T08:51:24.746Z,92076.00
2023-04-12T08:52:24.874Z,92063.00
2023-04-12T08:53:25.194Z,92061.00
2023-04-12T08:54:25.102Z,92057.00
2023-04-12T08:55:25.209Z,92055.00
2023-04-12T08:56:25.343Z,92049.00
2023-04-12T08:57:25.409Z,92049.00
2023-04-12T08:58:25.527Z,92049.00
2023-04-12T08:59:25.629Z,92045.00
2023-04-12T09:00:25.792Z,92037.00
2023-04-12T09:01:25.907Z,92039.00
2023-04-12T09:02:27.063Z,92035.00
2023-04-12T09:03:26.277Z,92039.00
2023-04-12T09:04:26.356Z,92041.00
2023-04-12T09:05:26.451Z,92037.00
2023-04-12T09:06:26.545Z,92037.00
2023-04-12T09:07:26.675Z,92031.00
2023-04-12T09:08:26.785Z,92028.00
2023-04-12T09:09:26.895Z,92026.00
2023-04-12T09:10:26.996Z,92020.00
2023-04-12T09:11:27.127Z,92018.00
2023-04-12T09:12:27.254Z,92018.00
2023-04-12T09:13:27.297Z,92016.00
2023-04-12T09:14:28.326Z,92014.00
2023-04-12T09:15:27.472Z,92008.00
2023-04-12T09:16:27.560Z,92000.00
2023-04-12T09:17:27.692Z,91996.00
2023-04-12T09:18:27.738Z,92000.00
2023-04-12T09:19:27.825Z,92004.00
2023-04-12T09:20:27.938Z,92004.00
2023-04-12T09:21:28.055Z,91998.00
2023-04-12T09:22:28.181Z,91986.00
2023-04-12T09:23:28.282Z,91980.00
2023-04-12T09:24:28.434Z,91980.00
2023-04-12T09:25:28.495Z,91982.00
2023-04-12T09:26:28.580Z,91990.00
2023-04-12T09:27:28.680Z,91988.00
2023-04-12T09:28:28.802Z,91984.00
2023-04-12T09:29:28.914Z,91984.00
2023-04-12T09:30:29.016Z,91980.00
2023-04-12T09:31:29.134Z,91984.00
2023-04-12T09:32:29.264Z,91986.00
2023-04-12T09:33:29.312Z,91984.00
2023-04-12T09:34:29.435Z,91978.00
2023-04-12T09:35:29.551Z,91980.00
2023-04-12T09:36:29.721Z,91980.00
2023-04-12T09:37:29.837Z,91980.00
2023-04-12T09:38:29.984Z,91980.00
2023-04-12T09:39:30.090Z,91980.00
2023-04-12T09:40:30.216Z,91982.00
2023-04-12T09:41:30.316Z,91984.00
2023-04-12T09:42:34.079Z,91984.00
2023-04-12T09:43:30.501Z,91982.00
2023-04-12T09:44:30.572Z,91978.00
2023-04-12T09:45:30.636Z,91982.00
2023-04-12T09:46:30.716Z,91982.00
2023-04-12T09:47:30.778Z,91980.00
2023-04-12T09:48:30.838Z,91978.00
2023-04-12T09:49:30.889Z,91977.00
2023-04-12T09:50:30.968Z,91969.00
2023-04-12T09:51:31.015Z,91965.00
2023-04-12T09:52:32.407Z,91961.00
2023-04-12T09:53:31.257Z,91961.00
2023-04-12T09:54:31.752Z,91963.00
2023-04-12T09:55:31.282Z,91971.00
2023-04-12T09:56:31.365Z,91967.00
2023-04-12T09:57:31.396Z,91959.00
2023-04-12T09:58:31.757Z,91949.00
2023-04-12T09:59:31.515Z,91951.00
2023-04-12T10:00:31.590Z,91949.00
2023-04-12T10:01:32.655Z,91953.00
2023-04-12T10:02:31.856Z,91953.00
2023-04-12T10:03:31.895Z,91949.00
2023-04-12T10:04:31.842Z,91939.00
2023-04-12T10:05:31.887Z,91931.00
2023-04-12T10:06:31.937Z,91928.00
2023-04-12T10:07:31.934Z,91930.00
2023-04-12T10:08:32.031Z,91931.00
2023-04-12T10:09:32.033Z,91926.00
2023-04-12T10:10:32.155Z,91922.00
2023-04-12T10:11:32.250Z,91918.00
2023-04-12T10:12:32.847Z,91916.00
2023-04-12T10:13:32.486Z,91918.00
2023-04-12T10:14:32.534Z,91918.00
2023-04-12T10:15:32.634Z,91918.00
2023-04-12T10:16:32.769Z,91916.00
2023-04-12T10:17:33.075Z,91908.00
2023-04-12T10:18:32.921Z,91906.00
2023-04-12T10:19:33.048Z,91902.00
2023-04-12T10:20:33.089Z,91902.00
2023-04-12T10:21:33.204Z,91906.00
2023-04-12T10:22:33.275Z,91904.00
2023-04-12T10:23:33.404Z,91900.00
2023-04-12T10:24:33.498Z,91900.00
2023-04-12T10:25:33.639Z,91896.00
2023-04-12T10:26:33.703Z,91894.00
2023-04-12T10:27:33.800Z,91892.00
2023-04-12T10:28:33.902Z,91886.00
2023-04-12T10:29:33.986Z,91886.00
2023-04-12T10:30:34.099Z,91880.00
2023-04-12T10:31:34.230Z,91878.00
2023-04-12T10:32:35.417Z,91876.00
2023-04-12T10:33:34.334Z,91875.00
2023-04-12T10:34:34.426Z,91873.00
2023-04-12T10:35:34.541Z,91867.00
2023-04-12T10:36:34.619Z,91861.00
2023-04-12T10:37:34.697Z,91863.00
2023-04-12T10:38:36.095Z,91865.00
2023-04-12T10:39:34.887Z,91863.00
2023-04-12T10:40:34.955Z,91863.00
2023-04-12T10:41:35.061Z,91859.00
2023-04-12T10:42:35.121Z,91855.00
2023-04-12T10:43:35.204Z,91853.00
2023-04-12T10:44:36.210Z,91851.00
2023-04-12T10:45:35.291Z,91851.00
2023-04-12T10:46:35.456Z,91849.00
2023-04-12T10:47:35.327Z,91841.00
2023-04-12T10:48:35.369Z,91839.00
2023-04-12T10:49:35.360Z,91837.00
2023-04-12T10:50:35.459Z,91833.00
2023-04-12T10:51:35.429Z,91829.00
2023-04-12T10:52:35.463Z,91829.00
2023-04-12T10:53:35.486Z,91826.00
2023-04-12T10:54:35.701Z,91822.00
2023-04-12T10:55:35.602Z,91822.00
2023-04-12T10:56:35.591Z,91820.00
2023-04-12T10:57:35.659Z,91818.00
2023-04-12T10:58:35.651Z,91818.00
2023-04-12T10:59:46.860Z,91814.00
2023-04-12T11:00:36.765Z,91806.00
2023-04-12T11:01:38.335Z,91806.00
2023-04-12T11:02:35.896Z,91804.00
2023-04-12T11:03:35.872Z,91800.00
2023-04-12T11:04:35.925Z,91793.00
2023-04-12T11:05:35.847Z,91793.00
2023-04-12T11:06:35.854Z,91793.00
2023-04-12T11:07:36.373Z,91793.00
2023-04-12T11:08:36.894Z,91789.00
2023-04-12T11:09:36.944Z,91781.00
2023-04-12T11:10:35.922Z,91783.00
2023-04-12T11:11:35.915Z,91777.00
2023-04-12T11:12:35.931Z,91775.00
2023-04-12T11:13:36.012Z,91773.00
2023-04-12T11:14:35.983Z,91771.00
2023-04-12T11:15:36.174Z,91773.00
2023-04-12T11:16:36.070Z,91771.00
2023-04-12T11:17:37.799Z,91769.00
2023-04-12T11:18:36.230Z,91767.00
2023-04-12T11:19:36.134Z,91767.00
2023-04-12T11:20:36.160Z,91761.00
2023-04-12T11:21:36.191Z,91761.00
2023-04-12T11:22:36.223Z,91757.00
2023-04-12T11:23:36.248Z,91757.00
2023-04-12T11:24:36.293Z,91751.00
2023-04-12T11:25:36.281Z,91753.00
2023-04-12T11:26:36.290Z,91757.00
2023-04-12T11:27:36.298Z,91755.00
2023-04-12T11:28:36.308Z,91755.00
2023-04-12T11:29:36.345Z,91751.00
2023-04-12T11:30:36.432Z,91751.00
2023-04-12T11:31:36.781Z,91744.00
2023-04-12T11:32:36.556Z,91744.00
2023-04-12T11:33:36.587Z,91740.00
2023-04-12T11:34:36.662Z,91740.00
2023-04-12T11:35:36.730Z,91742.00
2023-04-12T11:36:36.837Z,91736.00
2023-04-12T11:37:36.862Z,91738.00
2023-04-12T11:38:36.951Z,91738.00
2023-04-12T11:39:37.003Z,91738.00
2023-04-12T11:40:37.059Z,91738.00
2023-04-12T11:41:37.274Z,91732.00
2023-04-12T11:42:38.360Z,91732.00
2023-04-12T11:43:37.537Z,91732.00
2023-04-12T11:44:54.460Z,91730.00
2023-04-12T11:45:38.615Z,91724.00
2023-04-12T11:46:37.631Z,91722.00
2023-04-12T11:47:37.758Z,91720.00